Time;durP1;ratioP1;P1;durP2;ratioP2;P2;SDS_P1;SDS_P2;PMS_P1;PMS_P2;Temp;Humidity;BMP_temperature;BMP_pressure;BME280_temperature;BME280_humidity;BME280_pressure;Samples;Min_cycle;Max_cycle;Signal;HPM_P1;HPM_P2
2022/03/01 00:00:34;;;;;;;35.85;16.98;;;;;;;;;;5082481;28;20024;-68
2022/03/01 00:03:00;;;;;;;34.70;18.20;;;;;;;;;;5066905;28;20412;-68
2022/03/01 00:05:25;;;;;;;43.92;19.65;;;;;;;;;;5067466;28;20028;-68
2022/03/01 00:07:55;;;;;;;39.22;18.90;;;;;;;;;;5034002;28;20042;-67
2022/03/01 00:10:21;;;;;;;49.80;19.80;;;;;;;;;;5066962;28;20455;-68
2022/03/01 00:12:46;;;;;;;45.17;19.17;;;;;;;;;;5064078;28;20134;-69
2022/03/01 00:15:12;;;;;;;41.55;19.30;;;;;;;;;;5067613;28;20031;-68
2022/03/01 00:17:37;;;;;;;44.03;18.85;;;;;;;;;;5043659;28;20028;-68
2022/03/01 00:20:03;;;;;;;51.05;20.00;;;;;;;;;;5067097;28;20035;-68
2022/03/01 00:22:29;;;;;;;47.40;19.73;;;;;;;;;;5066692;28;20028;-68
2022/03/01 00:24:54;;;;;;;43.22;19.08;;;;;;;;;;5066874;28;20039;-67
2022/03/01 00:27:20;;;;;;;43.22;18.92;;;;;;;;;;5064235;28;20047;-68
2022/03/01 00:29:48;;;;;;;43.88;19.98;;;;;;;;;;5067033;28;20493;-68
2022/03/01 00:32:16;;;;;;;43.20;19.40;;;;;;;;;;5066986;28;20171;-69
2022/03/01 00:34:41;;;;;;;46.17;20.52;;;;;;;;;;5066946;28;20031;-68
2022/03/01 00:37:07;;;;;;;44.60;20.58;;;;;;;;;;5066726;28;20085;-68
2022/03/01 00:43:32;;;;;;;46.95;19.35;;;;;;;;;;5061877;28;20430;-68
2022/03/01 00:45:58;;;;;;;49.03;19.88;;;;;;;;;;5083150;28;20067;-68
2022/03/01 00:48:23;;;;;;;55.33;21.10;;;;;;;;;;5083869;28;20052;-70
2022/03/01 00:50:49;;;;;;;55.70;20.75;;;;;;;;;;5085683;28;20028;-68
2022/03/01 00:53:14;;;;;;;50.00;19.33;;;;;;;;;;5082457;28;20416;-68
2022/03/01 00:55:39;;;;;;;48.22;18.40;;;;;;;;;;5080452;28;20047;-69
2022/03/01 00:58:05;;;;;;;35.70;17.77;;;;;;;;;;5088645;28;20262;-68
2022/03/01 01:00:31;;;;;;;38.30;17.58;;;;;;;;;;5088394;28;20067;-68
2022/03/01 01:02:56;;;;;;;33.88;17.35;;;;;;;;;;5086803;28;20460;-68
2022/03/01 01:05:22;;;;;;;37.72;18.00;;;;;;;;;;5092330;28;20248;-68
2022/03/01 01:07:47;;;;;;;33.33;17.88;;;;;;;;;;5088459;28;20031;-67
2022/03/01 01:10:13;;;;;;;38.45;17.88;;;;;;;;;;5087956;28;20123;-68
2022/03/01 01:12:39;;;;;;;43.63;18.48;;;;;;;;;;5088165;28;20032;-67
2022/03/01 01:15:07;;;;;;;32.28;18.08;;;;;;;;;;5087603;28;20046;-67
2022/03/01 01:17:35;;;;;;;40.15;19.05;;;;;;;;;;5089587;28;20459;-68
2022/03/01 01:20:00;;;;;;;35.20;18.88;;;;;;;;;;5077202;28;20024;-68
2022/03/01 01:22:40;;;;;;;37.45;18.75;;;;;;;;;;5089494;28;20042;-68
2022/03/01 01:25:20;;;;;;;49.75;19.25;;;;;;;;;;5089601;28;20043;-68
2022/03/01 01:27:49;;;;;;;54.45;20.67;;;;;;;;;;5088077;28;20024;-67
2022/03/01 01:30:19;;;;;;;54.75;21.77;;;;;;;;;;5088592;28;20020;-69
2022/03/01 01:32:44;;;;;;;55.90;22.05;;;;;;;;;;5088858;28;20475;-67
2022/03/01 01:35:10;;;;;;;54.00;22.45;;;;;;;;;;5088296;28;20016;-68
2022/03/01 01:37:36;;;;;;;47.35;19.75;;;;;;;;;;5084530;28;20046;-68
2022/03/01 01:40:02;;;;;;;41.33;19.73;;;;;;;;;;5093387;28;20034;-68
2022/03/01 01:42:28;;;;;;;50.40;21.23;;;;;;;;;;5093192;28;20020;-67
2022/03/01 01:44:53;;;;;;;41.25;19.60;;;;;;;;;;5092130;28;20105;-68
2022/03/01 01:47:19;;;;;;;42.47;19.42;;;;;;;;;;5097665;28;20035;-67
2022/03/01 01:49:44;;;;;;;38.42;18.33;;;;;;;;;;5093083;28;20036;-69
2022/03/01 01:52:10;;;;;;;36.40;17.90;;;;;;;;;;5093074;28;20024;-68
2022/03/01 01:54:36;;;;;;;43.42;18.05;;;;;;;;;;5093246;28;20028;-68
2022/03/01 01:57:19;;;;;;;39.13;17.65;;;;;;;;;;5074977;28;20376;-68
2022/03/01 01:59:46;;;;;;;44.70;18.85;;;;;;;;;;5096104;28;20521;-68
2022/03/01 02:02:12;;;;;;;40.63;18.40;;;;;;;;;;5092692;28;20039;-68
2022/03/01 02:04:38;;;;;;;39.47;18.33;;;;;;;;;;5095302;28;20168;-68
2022/03/01 02:07:03;;;;;;;51.83;19.58;;;;;;;;;;5108065;28;20534;-68
2022/03/01 02:09:29;;;;;;;44.65;20.17;;;;;;;;;;5109064;28;20043;-68
2022/03/01 02:11:54;;;;;;;47.55;19.70;;;;;;;;;;5092805;28;20021;-68
2022/03/01 02:14:22;;;;;;;49.53;19.10;;;;;;;;;;5092342;28;20020;-69
2022/03/01 02:16:50;;;;;;;55.03;20.77;;;;;;;;;;5092905;28;20077;-68
2022/03/01 02:19:16;;;;;;;49.30;20.80;;;;;;;;;;5092075;28;20020;-69
2022/03/01 02:21:48;;;;;;;51.53;20.40;;;;;;;;;;5092155;28;20024;-68
2022/03/01 02:24:14;;;;;;;49.47;19.85;;;;;;;;;;5090603;28;20020;-68
2022/03/01 02:26:40;;;;;;;44.00;18.92;;;;;;;;;;5092535;28;20016;-68
2022/03/01 02:29:06;;;;;;;41.58;18.08;;;;;;;;;;5092829;28;20498;-69
2022/03/01 02:31:31;;;;;;;41.97;19.00;;;;;;;;;;5092595;28;20020;-68
2022/03/01 02:33:57;;;;;;;38.20;17.50;;;;;;;;;;5092312;28;20066;-68
2022/03/01 02:36:23;;;;;;;36.80;17.25;;;;;;;;;;5082598;28;20425;-67
2022/03/01 02:38:50;;;;;;;33.60;16.88;;;;;;;;;;5073608;28;20476;-67
2022/03/01 02:41:16;;;;;;;37.90;17.25;;;;;;;;;;5090521;28;20031;-68
2022/03/01 02:43:41;;;;;;;31.40;17.23;;;;;;;;;;5090460;28;20048;-68
2022/03/01 02:46:07;;;;;;;32.80;17.10;;;;;;;;;;5092351;28;20051;-68
2022/03/01 02:48:32;;;;;;;27.60;16.42;;;;;;;;;;5094525;28;20032;-68
2022/03/01 02:50:57;;;;;;;35.30;17.98;;;;;;;;;;5089494;28;20490;-68
2022/03/01 02:53:23;;;;;;;38.45;18.55;;;;;;;;;;5091815;28;20024;-68
2022/03/01 02:55:48;;;;;;;32.97;18.08;;;;;;;;;;5092033;28;20112;-67
2022/03/01 02:58:16;;;;;;;36.13;19.08;;;;;;;;;;5093422;28;20028;-66
2022/03/01 03:00:42;;;;;;;36.08;18.13;;;;;;;;;;5091934;28;20099;-67
2022/03/01 03:03:07;;;;;;;34.45;18.15;;;;;;;;;;5089382;28;20131;-67
2022/03/01 03:05:33;;;;;;;36.42;18.52;;;;;;;;;;5094792;28;20143;-68
2022/03/01 03:07:59;;;;;;;36.08;18.58;;;;;;;;;;5091394;28;20035;-68
2022/03/01 03:10:29;;;;;;;38.60;19.83;;;;;;;;;;5102086;28;20016;-69
2022/03/01 03:12:54;;;;;;;34.15;18.70;;;;;;;;;;5092426;28;20020;-68
2022/03/01 03:15:22;;;;;;;33.85;19.23;;;;;;;;;;5073758;28;20074;-68
2022/03/01 03:17:50;;;;;;;31.40;19.23;;;;;;;;;;5090815;28;20413;-67
2022/03/01 03:20:15;;;;;;;35.17;19.35;;;;;;;;;;5089778;28;20065;-67
2022/03/01 03:22:40;;;;;;;33.45;18.40;;;;;;;;;;5056275;28;20111;-67
2022/03/01 03:25:06;;;;;;;34.88;19.52;;;;;;;;;;5089729;28;20024;-67
2022/03/01 03:27:32;;;;;;;39.25;20.05;;;;;;;;;;5091492;28;20451;-68
2022/03/01 03:29:57;;;;;;;30.73;19.08;;;;;;;;;;5090130;28;20036;-67
2022/03/01 03:32:22;;;;;;;31.70;19.70;;;;;;;;;;5090426;28;20451;-68
2022/03/01 03:34:50;;;;;;;34.53;19.65;;;;;;;;;;5089168;28;20121;-69
2022/03/01 03:37:18;;;;;;;35.00;19.17;;;;;;;;;;5090884;28;20024;-68
2022/03/01 03:39:44;;;;;;;42.83;22.83;;;;;;;;;;5089974;28;20027;-68
2022/03/01 03:42:09;;;;;;;39.17;22.98;;;;;;;;;;5090997;28;20020;-68
2022/03/01 03:44:34;;;;;;;40.22;23.60;;;;;;;;;;5089169;28;20141;-68
2022/03/01 03:47:00;;;;;;;40.85;23.85;;;;;;;;;;5091540;28;20040;-67
2022/03/01 03:49:25;;;;;;;45.22;24.73;;;;;;;;;;5090447;28;20028;-67
2022/03/01 03:51:51;;;;;;;35.20;21.05;;;;;;;;;;5090810;28;20027;-68
2022/03/01 03:54:16;;;;;;;40.28;21.48;;;;;;;;;;5090550;28;20127;-68
2022/03/01 03:56:44;;;;;;;39.97;22.35;;;;;;;;;;5088879;28;20024;-68
2022/03/01 03:59:10;;;;;;;37.05;20.45;;;;;;;;;;5085947;28;20029;-68
2022/03/01 04:01:35;;;;;;;34.92;20.58;;;;;;;;;;5090068;28;20027;-68
2022/03/01 04:04:01;;;;;;;32.45;18.80;;;;;;;;;;5092869;28;20383;-68
2022/03/01 04:06:29;;;;;;;37.13;19.92;;;;;;;;;;5091261;28;20112;-69
2022/03/01 04:08:55;;;;;;;36.38;18.88;;;;;;;;;;5089767;28;20066;-68
2022/03/01 04:11:21;;;;;;;30.75;18.25;;;;;;;;;;5102914;28;20099;-68
2022/03/01 04:13:46;;;;;;;28.58;18.02;;;;;;;;;;5090353;28;20103;-67
2022/03/01 04:16:11;;;;;;;34.03;18.95;;;;;;;;;;5090418;28;20032;-67
2022/03/01 04:18:37;;;;;;;37.28;19.48;;;;;;;;;;5089527;28;20059;-68
2022/03/01 04:21:04;;;;;;;36.33;19.73;;;;;;;;;;5090266;28;20027;-67
2022/03/01 04:23:29;;;;;;;32.22;18.88;;;;;;;;;;5089869;28;20115;-67
2022/03/01 04:25:57;;;;;;;32.35;19.27;;;;;;;;;;5090807;28;20496;-68
2022/03/01 04:28:24;;;;;;;32.75;19.02;;;;;;;;;;5090335;28;20031;-68
2022/03/01 04:30:50;;;;;;;30.25;19.40;;;;;;;;;;5089677;28;20159;-68
2022/03/01 04:33:16;;;;;;;32.33;19.25;;;;;;;;;;5089764;28;20034;-67
2022/03/01 04:35:41;;;;;;;28.33;18.27;;;;;;;;;;5089734;28;20484;-67
2022/03/01 04:38:07;;;;;;;34.30;18.67;;;;;;;;;;5089899;28;20028;-67
2022/03/01 04:40:32;;;;;;;35.20;18.55;;;;;;;;;;5105365;28;20069;-68
2022/03/01 04:42:58;;;;;;;30.88;19.05;;;;;;;;;;5088483;28;20452;-69
2022/03/01 04:45:24;;;;;;;38.70;19.25;;;;;;;;;;5089094;28;20040;-69
2022/03/01 04:47:49;;;;;;;33.15;18.73;;;;;;;;;;5071533;28;20059;-68
2022/03/01 04:50:15;;;;;;;30.70;18.83;;;;;;;;;;5090019;28;20059;-69
2022/03/01 04:52:40;;;;;;;35.33;17.95;;;;;;;;;;5090628;28;20077;-69
2022/03/01 04:55:06;;;;;;;27.60;18.85;;;;;;;;;;5089687;28;20012;-68
2022/03/01 04:57:31;;;;;;;32.88;18.38;;;;;;;;;;5090369;28;20020;-69
2022/03/01 04:59:57;;;;;;;28.15;17.35;;;;;;;;;;5068933;28;20122;-67
2022/03/01 05:02:22;;;;;;;29.63;18.23;;;;;;;;;;5081667;28;20040;-68
2022/03/01 05:04:48;;;;;;;30.80;17.73;;;;;;;;;;5083590;28;20492;-68
2022/03/01 05:07:16;;;;;;;30.25;17.67;;;;;;;;;;5087850;28;20052;-68
2022/03/01 05:09:41;;;;;;;29.50;18.25;;;;;;;;;;5093269;28;20169;-68
2022/03/01 05:12:08;;;;;;;31.23;16.95;;;;;;;;;;5096764;28;20476;-68
2022/03/01 05:14:33;;;;;;;28.98;17.83;;;;;;;;;;5074518;28;20132;-68
2022/03/01 05:16:59;;;;;;;30.98;17.05;;;;;;;;;;5092471;28;20106;-68
2022/03/01 05:19:29;;;;;;;30.45;17.20;;;;;;;;;;5088566;28;20093;-69
2022/03/01 05:21:58;;;;;;;30.20;18.13;;;;;;;;;;5087368;28;20099;-68
2022/03/01 05:24:23;;;;;;;31.75;19.30;;;;;;;;;;5091488;28;20044;-68
2022/03/01 05:26:51;;;;;;;33.05;19.48;;;;;;;;;;5109240;28;20020;-67
2022/03/01 05:29:16;;;;;;;34.78;19.50;;;;;;;;;;5091886;28;20028;-67
2022/03/01 05:31:41;;;;;;;32.30;18.95;;;;;;;;;;5093832;28;20579;-67
2022/03/01 05:34:07;;;;;;;31.95;18.35;;;;;;;;;;5092719;28;20028;-68
2022/03/01 05:36:32;;;;;;;32.63;17.60;;;;;;;;;;5091861;28;20027;-68
2022/03/01 05:38:57;;;;;;;28.55;17.77;;;;;;;;;;5091903;28;20356;-68
2022/03/01 05:41:24;;;;;;;33.70;17.73;;;;;;;;;;5092031;28;20115;-67
2022/03/01 05:43:49;;;;;;;30.27;17.80;;;;;;;;;;5091528;28;20060;-69
2022/03/01 05:46:14;;;;;;;34.03;17.92;;;;;;;;;;5094101;28;20128;-70
2022/03/01 05:48:40;;;;;;;31.58;17.90;;;;;;;;;;5092886;28;20028;-69
2022/03/01 05:51:07;;;;;;;31.17;17.50;;;;;;;;;;5093270;28;20476;-67
2022/03/01 05:53:33;;;;;;;34.40;17.88;;;;;;;;;;5093261;28;20144;-68
2022/03/01 05:55:59;;;;;;;35.03;18.38;;;;;;;;;;5092435;28;20052;-68
2022/03/01 05:58:24;;;;;;;36.38;18.48;;;;;;;;;;5091883;28;20028;-69
2022/03/01 06:00:49;;;;;;;31.95;18.67;;;;;;;;;;5091722;28;20353;-68
2022/03/01 06:03:15;;;;;;;31.52;17.90;;;;;;;;;;5086386;28;20029;-68
2022/03/01 06:05:40;;;;;;;31.45;18.35;;;;;;;;;;5093061;28;20058;-67
2022/03/01 06:08:06;;;;;;;34.53;18.70;;;;;;;;;;5074584;28;20028;-68
2022/03/01 06:10:31;;;;;;;32.70;18.42;;;;;;;;;;5104073;28;20020;-68
2022/03/01 06:12:57;;;;;;;31.35;17.85;;;;;;;;;;5091297;28;20043;-68
2022/03/01 06:15:23;;;;;;;33.40;18.70;;;;;;;;;;5092893;28;20024;-68
2022/03/01 06:17:51;;;;;;;30.73;18.02;;;;;;;;;;5091764;28;20038;-68
2022/03/01 06:20:17;;;;;;;35.03;19.17;;;;;;;;;;5092756;28;20114;-68
2022/03/01 06:22:43;;;;;;;29.48;18.58;;;;;;;;;;5091805;28;20053;-68
2022/03/01 06:25:09;;;;;;;29.80;18.10;;;;;;;;;;5089914;28;20030;-68
2022/03/01 06:27:35;;;;;;;29.77;18.95;;;;;;;;;;5091994;28;20020;-68
2022/03/01 06:30:01;;;;;;;33.28;18.98;;;;;;;;;;5092842;28;20020;-69
2022/03/01 06:32:27;;;;;;;31.50;18.48;;;;;;;;;;5091008;28;20024;-68
2022/03/01 06:34:52;;;;;;;31.27;18.17;;;;;;;;;;5092318;28;20028;-69
2022/03/01 06:37:18;;;;;;;35.40;18.90;;;;;;;;;;5092377;28;20021;-68
2022/03/01 06:39:44;;;;;;;29.50;18.30;;;;;;;;;;5091904;28;20020;-68
2022/03/01 06:42:10;;;;;;;30.92;18.23;;;;;;;;;;5092114;28;20016;-69
2022/03/01 06:44:36;;;;;;;38.50;19.08;;;;;;;;;;5091307;28;20173;-68
2022/03/01 06:47:02;;;;;;;31.15;18.15;;;;;;;;;;5092752;28;20449;-68
2022/03/01 06:49:27;;;;;;;33.85;17.98;;;;;;;;;;5090237;28;20030;-68
2022/03/01 06:51:53;;;;;;;32.47;19.02;;;;;;;;;;5092156;28;20016;-68
2022/03/01 06:54:21;;;;;;;31.83;18.58;;;;;;;;;;5092032;28;20351;-68
2022/03/01 06:56:47;;;;;;;33.58;18.80;;;;;;;;;;5091422;28;20067;-68
2022/03/01 06:59:12;;;;;;;35.58;20.70;;;;;;;;;;5093833;28;20016;-68
2022/03/01 07:01:38;;;;;;;40.20;20.65;;;;;;;;;;5091688;28;20576;-68
2022/03/01 07:04:03;;;;;;;31.83;20.02;;;;;;;;;;5094318;28;20008;-67
2022/03/01 07:06:29;;;;;;;32.58;20.17;;;;;;;;;;5091245;28;20115;-68
2022/03/01 07:08:54;;;;;;;38.30;22.60;;;;;;;;;;5089773;28;20105;-68
2022/03/01 07:11:21;;;;;;;39.25;23.20;;;;;;;;;;5102114;28;20039;-69
2022/03/01 07:13:47;;;;;;;39.03;21.17;;;;;;;;;;5091660;28;20043;-69
2022/03/01 07:16:12;;;;;;;41.17;21.95;;;;;;;;;;5090024;28;20059;-69
2022/03/01 07:18:37;;;;;;;33.80;19.52;;;;;;;;;;5090563;28;20024;-68
2022/03/01 07:21:05;;;;;;;31.85;21.08;;;;;;;;;;5091169;28;20138;-68
2022/03/01 07:23:31;;;;;;;34.72;21.15;;;;;;;;;;5089621;28;20012;-68
2022/03/01 07:25:56;;;;;;;34.92;20.90;;;;;;;;;;5090116;28;20024;-68
2022/03/01 07:28:22;;;;;;;35.58;21.65;;;;;;;;;;5091122;28;20052;-68
2022/03/01 07:30:50;;;;;;;37.60;22.65;;;;;;;;;;5091177;28;20058;-67
2022/03/01 07:33:15;;;;;;;40.00;23.92;;;;;;;;;;5090837;28;20027;-68
2022/03/01 07:35:41;;;;;;;40.45;22.00;;;;;;;;;;5090999;28;20024;-69
2022/03/01 07:38:06;;;;;;;41.72;23.40;;;;;;;;;;5090802;28;20077;-68
2022/03/01 07:40:32;;;;;;;40.75;22.65;;;;;;;;;;5091246;28;20098;-68
2022/03/01 07:42:57;;;;;;;41.15;23.58;;;;;;;;;;5088769;28;20017;-68
2022/03/01 07:45:23;;;;;;;38.20;22.00;;;;;;;;;;5090835;28;20343;-68
2022/03/01 07:47:48;;;;;;;37.85;23.02;;;;;;;;;;5091636;28;20044;-69
2022/03/01 07:50:17;;;;;;;38.75;23.25;;;;;;;;;;5091146;28;20484;-69
2022/03/01 07:52:42;;;;;;;33.90;21.65;;;;;;;;;;5090733;28;20033;-68
2022/03/01 07:55:09;;;;;;;33.03;21.20;;;;;;;;;;5090743;28;20525;-68
2022/03/01 07:57:34;;;;;;;39.05;22.50;;;;;;;;;;5091120;28;20024;-67
2022/03/01 08:00:00;;;;;;;33.20;21.95;;;;;;;;;;5090502;28;20463;-67
2022/03/01 08:02:28;;;;;;;37.97;21.30;;;;;;;;;;5090654;28;20020;-68
2022/03/01 08:04:53;;;;;;;33.03;21.25;;;;;;;;;;5093435;28;20030;-68
2022/03/01 08:07:20;;;;;;;33.58;20.23;;;;;;;;;;5090607;28;20565;-68
2022/03/01 08:09:46;;;;;;;32.17;20.17;;;;;;;;;;5095495;28;20031;-68
2022/03/01 08:12:11;;;;;;;38.30;20.17;;;;;;;;;;5096677;28;20035;-69
2022/03/01 08:14:37;;;;;;;37.22;21.33;;;;;;;;;;5090191;28;20114;-68
2022/03/01 08:17:05;;;;;;;44.35;22.92;;;;;;;;;;5090420;28;20028;-67
2022/03/01 08:19:31;;;;;;;39.97;22.63;;;;;;;;;;5088755;28;20414;-68
2022/03/01 08:21:56;;;;;;;39.13;22.60;;;;;;;;;;5090151;28;20028;-69
2022/03/01 08:24:22;;;;;;;34.13;20.85;;;;;;;;;;5088928;28;20031;-68
2022/03/01 08:26:49;;;;;;;38.08;20.50;;;;;;;;;;5090495;28;20030;-68
2022/03/01 08:29:16;;;;;;;36.83;20.90;;;;;;;;;;5088899;28;20488;-69
2022/03/01 08:31:45;;;;;;;34.15;20.65;;;;;;;;;;5090678;28;20039;-68
2022/03/01 08:34:11;;;;;;;37.50;21.00;;;;;;;;;;5088353;28;20032;-69
2022/03/01 08:36:38;;;;;;;40.30;21.63;;;;;;;;;;5090626;28;20421;-68
2022/03/01 08:39:04;;;;;;;39.08;21.33;;;;;;;;;;5090250;28;20054;-69
2022/03/01 08:41:29;;;;;;;38.42;22.52;;;;;;;;;;5090700;28;20031;-69
2022/03/01 08:43:55;;;;;;;34.90;21.30;;;;;;;;;;5088681;28;20052;-69
2022/03/01 08:46:20;;;;;;;35.35;23.08;;;;;;;;;;5092797;28;20020;-69
2022/03/01 08:48:46;;;;;;;40.03;22.83;;;;;;;;;;5089507;28;20166;-69
2022/03/01 08:51:14;;;;;;;37.90;22.23;;;;;;;;;;5090331;28;20024;-69
2022/03/01 08:53:39;;;;;;;39.28;24.20;;;;;;;;;;5090230;28;20036;-69
2022/03/01 08:56:05;;;;;;;39.90;23.70;;;;;;;;;;5091152;28;20194;-70
2022/03/01 08:58:30;;;;;;;44.40;24.02;;;;;;;;;;5092589;28;20023;-70
2022/03/01 09:00:56;;;;;;;38.40;23.35;;;;;;;;;;5090485;28;20038;-69
2022/03/01 09:03:23;;;;;;;39.20;24.60;;;;;;;;;;5085534;28;20090;-69
2022/03/01 09:05:51;;;;;;;43.65;26.23;;;;;;;;;;5092373;28;20476;-69
2022/03/01 09:08:19;;;;;;;45.88;24.90;;;;;;;;;;5091110;28;20030;-69
2022/03/01 09:10:45;;;;;;;45.33;24.80;;;;;;;;;;5103859;28;20028;-70
2022/03/01 09:13:10;;;;;;;39.17;24.00;;;;;;;;;;5091220;28;20100;-69
2022/03/01 09:15:35;;;;;;;44.75;25.90;;;;;;;;;;5090577;28;20539;-69
2022/03/01 09:18:02;;;;;;;41.05;25.75;;;;;;;;;;5090845;28;20111;-68
2022/03/01 09:20:30;;;;;;;41.92;24.83;;;;;;;;;;5089241;28;20064;-69
2022/03/01 09:22:56;;;;;;;40.50;25.25;;;;;;;;;;5090786;28;20039;-68
2022/03/01 09:25:22;;;;;;;38.80;24.05;;;;;;;;;;5090224;28;20012;-68
2022/03/01 09:27:47;;;;;;;41.42;24.40;;;;;;;;;;5089955;28;20024;-68
2022/03/01 09:30:13;;;;;;;40.85;25.73;;;;;;;;;;5089123;28;20028;-68
2022/03/01 09:32:40;;;;;;;43.17;26.95;;;;;;;;;;5090345;28;20016;-68
2022/03/01 09:35:06;;;;;;;42.25;26.00;;;;;;;;;;5089282;28;20035;-69
2022/03/01 09:37:32;;;;;;;43.63;26.98;;;;;;;;;;5090348;28;20040;-68
2022/03/01 09:40:03;;;;;;;43.55;26.75;;;;;;;;;;5090592;28;20118;-68
2022/03/01 09:42:33;;;;;;;44.80;28.48;;;;;;;;;;5105896;28;20173;-68
2022/03/01 09:44:59;;;;;;;51.55;28.30;;;;;;;;;;5087563;28;20451;-68
2022/03/01 09:47:24;;;;;;;47.22;27.52;;;;;;;;;;5091728;28;20116;-68
2022/03/01 09:49:50;;;;;;;48.38;29.45;;;;;;;;;;5090218;28;20081;-68
2022/03/01 09:52:16;;;;;;;55.55;30.90;;;;;;;;;;5072129;28;20119;-68
2022/03/01 09:54:41;;;;;;;53.38;32.65;;;;;;;;;;5089245;28;20429;-68
2022/03/01 09:57:07;;;;;;;56.22;33.03;;;;;;;;;;5085518;28;20048;-68
2022/03/01 09:59:35;;;;;;;58.05;33.15;;;;;;;;;;5090005;28;20063;-68
2022/03/01 10:02:00;;;;;;;59.33;31.63;;;;;;;;;;5093673;28;20048;-68
2022/03/01 10:04:25;;;;;;;58.38;32.03;;;;;;;;;;5092205;28;20059;-68
2022/03/01 10:06:51;;;;;;;54.28;31.52;;;;;;;;;;5094311;28;20020;-68
2022/03/01 10:09:18;;;;;;;55.03;30.55;;;;;;;;;;5094730;28;20036;-67
2022/03/01 10:11:44;;;;;;;50.40;30.48;;;;;;;;;;5120563;27;20211;-68
2022/03/01 10:14:10;;;;;;;48.97;28.73;;;;;;;;;;5093506;28;20028;-68
2022/03/01 10:16:40;;;;;;;51.58;29.42;;;;;;;;;;5092289;28;20488;-68
2022/03/01 10:19:08;;;;;;;48.45;28.35;;;;;;;;;;5091542;28;20133;-68
2022/03/01 10:21:34;;;;;;;44.97;28.38;;;;;;;;;;5093734;28;20034;-68
2022/03/01 10:24:01;;;;;;;52.83;30.52;;;;;;;;;;5075355;28;20111;-67
2022/03/01 10:26:28;;;;;;;52.75;29.50;;;;;;;;;;5092854;28;20035;-67
2022/03/01 10:28:55;;;;;;;49.55;30.55;;;;;;;;;;5092226;28;20401;-67
2022/03/01 10:31:30;;;;;;;50.85;29.75;;;;;;;;;;5093123;28;20028;-67
2022/03/01 10:33:57;;;;;;;46.83;29.13;;;;;;;;;;5091375;28;20149;-67
2022/03/01 10:36:24;;;;;;;48.13;29.38;;;;;;;;;;5093452;28;20031;-67
2022/03/01 10:39:07;;;;;;;46.97;27.70;;;;;;;;;;5093233;28;20040;-67
2022/03/01 10:41:33;;;;;;;51.40;29.83;;;;;;;;;;5089068;28;20028;-69
2022/03/01 10:44:03;;;;;;;47.60;29.50;;;;;;;;;;5091753;28;20048;-68
2022/03/01 10:46:29;;;;;;;44.80;28.23;;;;;;;;;;5093655;28;20027;-68
2022/03/01 10:49:02;;;;;;;43.45;27.33;;;;;;;;;;5091121;28;20066;-67
2022/03/01 10:51:28;;;;;;;42.85;28.52;;;;;;;;;;5092776;28;20384;-67
2022/03/01 10:53:53;;;;;;;48.30;28.58;;;;;;;;;;5091776;28;20039;-68
2022/03/01 10:56:19;;;;;;;49.25;28.88;;;;;;;;;;5091324;28;20036;-68
2022/03/01 10:58:45;;;;;;;47.10;27.77;;;;;;;;;;5093517;28;20066;-68
2022/03/01 11:01:16;;;;;;;43.10;28.42;;;;;;;;;;5091851;28;20050;-68
2022/03/01 11:03:41;;;;;;;41.30;27.55;;;;;;;;;;5074463;28;20123;-68
2022/03/01 11:06:09;;;;;;;44.30;28.27;;;;;;;;;;5095406;28;20059;-68
2022/03/01 11:08:36;;;;;;;44.33;30.27;;;;;;;;;;5070449;28;20025;-70
2022/03/01 11:11:03;;;;;;;43.92;26.48;;;;;;;;;;5096923;28;20036;-67
2022/03/01 11:13:33;;;;;;;39.15;25.83;;;;;;;;;;5092456;28;20052;-67
2022/03/01 11:16:18;;;;;;;41.00;26.52;;;;;;;;;;5092571;28;20440;-67
2022/03/01 11:18:49;;;;;;;40.53;26.42;;;;;;;;;;5089799;28;20148;-67
2022/03/01 11:21:15;;;;;;;41.33;26.52;;;;;;;;;;5077788;28;20020;-67
2022/03/01 11:23:41;;;;;;;41.58;27.58;;;;;;;;;;5091925;28;20027;-67
2022/03/01 11:26:08;;;;;;;40.70;28.27;;;;;;;;;;5092367;28;20024;-67
2022/03/01 11:28:40;;;;;;;40.95;27.35;;;;;;;;;;5092265;28;20012;-67
2022/03/01 11:31:17;;;;;;;39.60;25.90;;;;;;;;;;5092138;28;20024;-67
2022/03/01 11:33:42;;;;;;;41.47;27.00;;;;;;;;;;5091123;28;20441;-67
2022/03/01 11:36:19;;;;;;;41.58;28.27;;;;;;;;;;5090834;28;20114;-68
2022/03/01 11:38:45;;;;;;;42.97;26.88;;;;;;;;;;5091913;28;20027;-67
2022/03/01 11:41:14;;;;;;;40.83;27.90;;;;;;;;;;5092001;28;20028;-68
2022/03/01 11:43:42;;;;;;;40.70;28.00;;;;;;;;;;5090399;28;20043;-68
2022/03/01 11:46:15;;;;;;;41.40;26.77;;;;;;;;;;5090165;28;20024;-67
2022/03/01 11:48:58;;;;;;;40.92;27.40;;;;;;;;;;5091646;28;20016;-68
2022/03/01 11:51:36;;;;;;;42.58;27.40;;;;;;;;;;5091635;28;20016;-69
2022/03/01 11:54:07;;;;;;;40.10;27.02;;;;;;;;;;5085966;28;20027;-67
2022/03/01 11:56:34;;;;;;;37.80;26.73;;;;;;;;;;5091200;28;20052;-67
2022/03/01 11:59:04;;;;;;;41.60;26.58;;;;;;;;;;5092563;28;20039;-68
2022/03/01 12:01:32;;;;;;;43.53;28.20;;;;;;;;;;5091396;28;20055;-69
2022/03/01 12:04:02;;;;;;;42.60;28.77;;;;;;;;;;5093873;28;20008;-68
2022/03/01 12:06:28;;;;;;;44.75;28.65;;;;;;;;;;5091115;28;20029;-67
2022/03/01 12:08:57;;;;;;;44.67;28.58;;;;;;;;;;5090830;28;20467;-68
2022/03/01 12:11:37;;;;;;;43.10;28.30;;;;;;;;;;5104046;28;20111;-68
2022/03/01 12:14:06;;;;;;;45.42;28.42;;;;;;;;;;5091584;28;20347;-68
2022/03/01 12:16:33;;;;;;;45.63;28.95;;;;;;;;;;5091821;28;20085;-68
2022/03/01 12:19:10;;;;;;;49.47;29.75;;;;;;;;;;5089030;28;20035;-69
2022/03/01 12:21:37;;;;;;;47.25;27.92;;;;;;;;;;5091344;28;20363;-69
2022/03/01 12:24:05;;;;;;;51.20;28.83;;;;;;;;;;5090108;28;20024;-68
2022/03/01 12:26:30;;;;;;;48.10;28.83;;;;;;;;;;5090370;28;20031;-69
2022/03/01 12:28:57;;;;;;;44.83;28.38;;;;;;;;;;5090861;28;20028;-69
2022/03/01 12:31:25;;;;;;;47.75;29.95;;;;;;;;;;5091193;28;20095;-68
2022/03/01 12:33:51;;;;;;;49.15;29.30;;;;;;;;;;5089083;28;20020;-68
2022/03/01 12:36:27;;;;;;;47.85;29.45;;;;;;;;;;5090643;28;20507;-68
2022/03/01 12:38:57;;;;;;;41.95;28.58;;;;;;;;;;5090884;28;20446;-67
2022/03/01 12:41:23;;;;;;;43.35;29.15;;;;;;;;;;5089900;28;20061;-68
2022/03/01 12:43:53;;;;;;;44.10;27.92;;;;;;;;;;5090535;28;20071;-67
2022/03/01 12:46:20;;;;;;;39.67;27.38;;;;;;;;;;5092204;28;20028;-68
2022/03/01 12:48:50;;;;;;;40.78;27.58;;;;;;;;;;5090321;28;20107;-67
2022/03/01 12:51:16;;;;;;;44.45;30.17;;;;;;;;;;5090710;28;20167;-69
2022/03/01 12:54:14;;;;;;;44.17;28.77;;;;;;;;;;5090995;28;20021;-68
2022/03/01 12:56:40;;;;;;;42.03;28.13;;;;;;;;;;5078057;28;20036;-67
2022/03/01 12:59:06;;;;;;;42.28;27.23;;;;;;;;;;5055404;28;20495;-68
2022/03/01 13:01:32;;;;;;;38.55;26.67;;;;;;;;;;5091110;28;20016;-68
2022/03/01 13:03:58;;;;;;;38.47;26.50;;;;;;;;;;5092068;28;20059;-68
2022/03/01 13:06:24;;;;;;;40.42;27.60;;;;;;;;;;5090899;28;20016;-67
2022/03/01 13:08:51;;;;;;;39.80;27.52;;;;;;;;;;5072631;28;20369;-67
2022/03/01 13:11:17;;;;;;;37.47;26.02;;;;;;;;;;5101639;28;20016;-67
2022/03/01 13:13:45;;;;;;;43.65;26.75;;;;;;;;;;5090441;28;20024;-67
2022/03/01 13:16:11;;;;;;;42.22;27.63;;;;;;;;;;5090399;28;20020;-68
2022/03/01 13:18:41;;;;;;;39.80;27.38;;;;;;;;;;5090447;28;20024;-68
2022/03/01 13:21:09;;;;;;;38.38;25.60;;;;;;;;;;5091088;28;20017;-68
2022/03/01 13:23:35;;;;;;;42.97;27.60;;;;;;;;;;5090530;28;20031;-68
2022/03/01 13:26:01;;;;;;;41.55;26.95;;;;;;;;;;5091210;28;20016;-68
2022/03/01 13:28:30;;;;;;;40.45;26.65;;;;;;;;;;5088641;28;20032;-67
2022/03/01 13:30:56;;;;;;;40.92;26.63;;;;;;;;;;5091005;28;20050;-68
2022/03/01 13:33:25;;;;;;;41.55;26.17;;;;;;;;;;5089570;28;20024;-69
2022/03/01 13:35:51;;;;;;;38.72;26.48;;;;;;;;;;5093078;28;20023;-69
2022/03/01 13:38:18;;;;;;;38.92;26.02;;;;;;;;;;5093945;28;20535;-68
2022/03/01 13:40:44;;;;;;;43.45;27.13;;;;;;;;;;5094259;28;20073;-68
2022/03/01 13:43:17;;;;;;;37.70;25.83;;;;;;;;;;5093771;28;20015;-68
2022/03/01 13:45:42;;;;;;;41.00;26.10;;;;;;;;;;5093048;28;20101;-70
2022/03/01 13:48:09;;;;;;;37.70;26.00;;;;;;;;;;5095538;28;20107;-68
2022/03/01 13:50:35;;;;;;;40.45;26.23;;;;;;;;;;5094122;28;20517;-68
2022/03/01 13:53:07;;;;;;;34.28;25.02;;;;;;;;;;5093982;28;20141;-69
2022/03/01 13:55:35;;;;;;;39.17;26.50;;;;;;;;;;5094043;28;20020;-67
2022/03/01 13:58:03;;;;;;;39.60;26.52;;;;;;;;;;5095358;28;20037;-67
2022/03/01 14:00:30;;;;;;;42.15;28.00;;;;;;;;;;5093780;28;20444;-68
2022/03/01 14:03:06;;;;;;;36.92;26.02;;;;;;;;;;5093691;28;20424;-67
2022/03/01 14:05:31;;;;;;;39.13;26.25;;;;;;;;;;5096645;28;20239;-68
2022/03/01 14:08:04;;;;;;;39.28;26.83;;;;;;;;;;5093778;28;20040;-68
2022/03/01 14:10:31;;;;;;;38.22;26.10;;;;;;;;;;5105519;28;20117;-68
2022/03/01 14:13:01;;;;;;;40.20;27.70;;;;;;;;;;5092863;28;20126;-69
2022/03/01 14:15:35;;;;;;;39.80;27.02;;;;;;;;;;5092547;28;20119;-69
2022/03/01 14:18:02;;;;;;;37.70;27.05;;;;;;;;;;5081028;28;20012;-69